Flight Track Log - Related Links

Times and Time Zones

All times are in EDT time to prevent confusion due to time zone crossing. See the N53NW flight status page for this flight to view local times or setup timezone preferences in your user account.

Time Position Orientation Groundspeed Altitude Reporting Facility
EDT Latitude Longitude Course Direction KTS MPH feet Rate Location/Type
Sat 10:46:05 AM 32.8431 -80.0839 211° Southwest 228 262 2,500  Level Jacksonville Center
Sat 10:47:05 AM 32.7814 -80.1278 211° Southwest 265 305 5,600 3,050 Climbing Jacksonville Center
Sat 10:48:05 AM 32.7219 -80.1739 213° Southwest 270 311 8,600 2,700 Climbing Jacksonville Center
Sat 10:49:05 AM 32.6497 -80.2206 211° Southwest 275 316 11,000 2,400 Climbing Jacksonville Center
Sat 10:50:05 AM 32.5669 -80.2453 194° South 294 338 13,400 2,200 Climbing Jacksonville Center
Sat 10:51:05 AM 32.4817 -80.2672 192° South 304 350 15,400 2,000 Climbing Jacksonville Center
Sat 10:52:05 AM 32.3944 -80.2919 193° South 322 371 17,400 1,950 Climbing Jacksonville Center
Sat 10:53:05 AM 32.3053 -80.3167 193° South 327 376 19,300 1,850 Climbing Jacksonville Center
Sat 10:54:05 AM 32.2181 -80.3411 193° South 327 376 21,100 1,800 Climbing Jacksonville Center
Sat 10:55:05 AM 32.1289 -80.3658 193° South 327 376 22,900 1,800 Climbing Jacksonville Center
Sat 10:56:05 AM 32.0436 -80.3903 194° South 327 376 24,700 1,550 Climbing Jacksonville Center
Sat 10:57:05 AM 31.9522 -80.4147 193° South 333 383 26,000 650 Climbing Jacksonville Center
Sat 10:58:05 AM 31.8506 -80.4394 192° South 362 417 26,000  Level Jacksonville Center
Sat 10:59:05 AM 31.7675 -80.4636 194° South 361 415 26,000  Level Jacksonville Center
Sat 11:00:05 AM 31.6553 -80.4933 193° South 367 422 26,000  Level Jacksonville Center
Sat 11:01:05 AM 31.5639 -80.5203 194° South 374 430 26,000  Level Jacksonville Center
Sat 11:02:05 AM 31.4600 -80.5447 191° South 374 430 26,000  Level Jacksonville Center
Sat 11:03:05 AM 31.3644 -80.5764 196° South 374 430 26,000  Level Jacksonville Center
Sat 11:04:05 AM 31.2628 -80.6008 192° South 369 425 26,000  Level Jacksonville Center
Sat 11:05:05 AM 31.1567 -80.6253 191° South 383 441 26,000  Level Jacksonville Center
Sat 11:06:05 AM 31.0569 -80.6567 195° South 383 441 26,000  Level Jacksonville Center
Sat 11:07:05 AM 30.9531 -80.6808 191° South 377 434 26,000  Level Jacksonville Center
Sat 11:08:05 AM 30.8492 -80.7100 194° South 377 434 26,000  Level Jacksonville Center
Sat 11:09:05 AM 30.7453 -80.7389 193° South 377 434 26,000  Level Jacksonville Center
Sat 11:10:05 AM 30.6456 -80.7653 193° South 377 434 26,000  Level Jacksonville Center
Sat 11:11:05 AM 30.5414 -80.7917 192° South 377 434 26,000  Level Jacksonville Center
Sat 11:12:05 AM 30.4397 -80.8181 193° South 377 434 26,000 -50 Level Jacksonville Center
Sat 11:13:05 AM 30.3378 -80.8444 193° South 377 434 25,900 -100 Descending Jacksonville Center
Sat 11:14:05 AM 30.2317 -80.8731 193° South 377 434 25,800 -650 Descending Jacksonville Center
Sat 11:15:05 AM 30.1297 -80.8992 192° South 377 434 24,600 -900 Descending Jacksonville Center
Sat 11:16:05 AM 30.0258 -80.9278 193° South 377 434 24,000 -300 Descending Jacksonville Center
Sat 11:17:05 AM 29.9239 -80.9539 193° South 377 434 24,000 -600 Level Jacksonville Center
Sat 11:18:05 AM 29.8200 -80.9728 189° South 377 434 22,800 -1,350 Descending Jacksonville Center
Sat 11:19:05 AM 29.7178 -80.9867 187° South 377 434 21,300 -1,500 Descending Jacksonville Center
Sat 11:20:05 AM 29.6219 -81.0028 188° South 360 414 19,800 -1,500 Descending Jacksonville Center
Sat 11:21:05 AM 29.5283 -81.0167 187° South 354 407 18,300 -1,500 Descending Jacksonville Center
Sat 11:22:05 AM 29.4283 -81.0303 187° South 338 389 16,800 -1,400 Descending Jacksonville Center
Sat 11:23:05 AM 29.3408 -81.0439 188° South 323 372 15,500 -1,200 Descending Jacksonville Center
Sat 11:24:05 AM 29.2533 -81.0575 188° South 317 365 14,400 -1,100 Descending Jacksonville Center
Sat 11:25:05 AM 29.1722 -81.0708 188° South 311 358 13,300 -1,100 Descending Jacksonville Center
Sat 11:26:05 AM 29.0908 -81.0794 185° South 305 351 12,200 -700 Descending Jacksonville Center
Sat 11:27:05 AM 29.0139 -81.0928 189° South 292 336 11,900 -600 Descending Jacksonville Center
Sat 11:28:05 AM 28.9364 -81.0800 172° South 292 336 11,000 -1,050 Descending Jacksonville Center
Sat 11:29:05 AM 28.8589 -81.0647 170° South 292 336 9,800 -1,300 Descending Jacksonville Center
Sat 11:30:05 AM 28.7883 -81.0781 189° South 262 302 8,400 -1,650 Descending Jacksonville Center
Sat 11:31:05 AM 28.7622 -81.1567 249° West 223 257 6,500 -2,050 Descending Jacksonville Center
Sat 11:32:05 AM 28.7317 -81.2233 242° Southwest 235 270 4,300 -1,350 Descending Jacksonville Center
Sat 11:33:05 AM 28.7011 -81.2831 240° Southwest 235 270 3,800 -700 Descending Jacksonville Center
Sat 11:34:05 AM 28.6536 -81.3075 204° Southwest 196 226 2,900 -700 Descending Jacksonville Center
Sat 11:35:05 AM 28.6058 -81.3247 198° South 191 220 2,400 -321 Descending Jacksonville Center
Sat 11:36:16 AM 28.5500 -81.3333 188° South 150 173 2,200 -432 Descending Orlando TRACON
Sat 11:37:10 AM 28.5167 -81.3333 180° South 130 150 1,500 -684 Descending Orlando TRACON
Sat 11:38:10 AM 28.4833 -81.3333 180° South 112 129 900 -574 Descending Orlando TRACON
Sat 11:39:05 AM 28.4667 -81.3333 180° South 110 127 400 -545 Descending Orlando TRACON
Sat 11:41:00 AM 28.4294 -81.3090 175° South  Level Estimated
Sat 11:48:00 AM 28.4294 -81.3090 175° South  Level Estimated
Sat 11:49:00 AM 28.4294 -81.3090 175° South  Level Estimated
Sat 11:50:00 AM 28.4294 -81.3090 175° South  Level Estimated

Login

Don't have an account? Register now (free) for customized features, flight alerts, and more!